createdAt,value
2022-08-29T00:02:11.334Z,99.90
2022-08-29T00:04:38.436Z,99.90
2022-08-29T00:07:06.120Z,99.90
2022-08-29T00:09:34.543Z,99.90
2022-08-29T00:12:01.596Z,99.90
2022-08-29T00:14:28.587Z,99.90
2022-08-29T00:16:55.623Z,99.90
2022-08-29T00:19:22.681Z,99.90
2022-08-29T00:21:50.760Z,99.90
2022-08-29T00:24:17.855Z,99.90
2022-08-29T00:26:46.113Z,99.90
2022-08-29T00:29:13.155Z,99.90
2022-08-29T00:31:40.485Z,99.90
2022-08-29T00:34:07.453Z,99.90
2022-08-29T00:36:34.424Z,99.90
2022-08-29T00:39:01.752Z,99.90
2022-08-29T00:41:29.134Z,99.90
2022-08-29T00:43:57.356Z,99.90
2022-08-29T00:46:43.488Z,99.90
2022-08-29T00:49:24.679Z,99.90
2022-08-29T00:51:52.575Z,99.90
2022-08-29T00:54:19.775Z,99.90
2022-08-29T00:56:47.055Z,99.90
2022-08-29T00:59:20.103Z,99.90
2022-08-29T01:01:47.636Z,99.90
2022-08-29T01:04:23.866Z,99.90
2022-08-29T01:06:52.260Z,99.90
2022-08-29T01:09:20.900Z,99.90
2022-08-29T01:12:06.719Z,99.90
2022-08-29T01:14:38.613Z,99.90
2022-08-29T01:17:09.061Z,99.90
2022-08-29T01:19:45.613Z,99.90
2022-08-29T01:22:50.935Z,99.90
2022-08-29T01:25:21.757Z,99.90
2022-08-29T01:27:54.376Z,99.90
2022-08-29T01:30:21.562Z,99.90
2022-08-29T01:32:48.955Z,99.90
2022-08-29T01:35:15.884Z,99.90
2022-08-29T01:37:44.890Z,99.90
2022-08-29T01:40:12.925Z,99.90
2022-08-29T01:42:41.340Z,99.90
2022-08-29T01:45:09.723Z,99.90
2022-08-29T01:47:38.775Z,99.90
2022-08-29T01:50:09.788Z,99.90
2022-08-29T01:52:36.800Z,99.90
2022-08-29T01:55:04.995Z,99.90
2022-08-29T01:57:31.911Z,99.90
2022-08-29T02:00:01.974Z,99.90
2022-08-29T02:02:31.989Z,99.90
2022-08-29T02:04:58.943Z,99.90
2022-08-29T02:07:26.799Z,99.90
2022-08-29T02:09:54.076Z,99.90
2022-08-29T02:12:21.090Z,99.90
2022-08-29T02:14:48.735Z,99.90
2022-08-29T02:17:16.989Z,99.90
2022-08-29T02:19:44.187Z,99.90
2022-08-29T02:22:11.599Z,99.90
2022-08-29T02:24:39.024Z,99.90
2022-08-29T02:27:06.131Z,99.90
2022-08-29T02:29:37.835Z,99.90
2022-08-29T02:32:07.003Z,99.90
2022-08-29T02:34:35.703Z,99.90
2022-08-29T02:37:03.031Z,99.90
2022-08-29T02:39:30.757Z,99.90
2022-08-29T02:41:57.873Z,99.90
2022-08-29T02:44:24.871Z,99.90
2022-08-29T02:46:52.162Z,99.90
2022-08-29T02:49:19.271Z,99.90
2022-08-29T02:51:47.558Z,99.90
2022-08-29T02:54:14.622Z,99.90
2022-08-29T03:00:59.351Z,99.90
2022-08-29T03:03:27.204Z,99.90
2022-08-29T03:05:55.162Z,99.90
2022-08-29T03:08:23.893Z,99.90
2022-08-29T03:10:50.817Z,99.90
2022-08-29T03:13:18.705Z,99.90
2022-08-29T03:15:45.663Z,99.90
2022-08-29T03:18:12.863Z,99.90
2022-08-29T03:20:41.763Z,99.90
2022-08-29T03:23:09.620Z,99.90
2022-08-29T03:25:38.297Z,99.90
2022-08-29T03:28:05.181Z,99.90
2022-08-29T03:30:33.425Z,99.90
2022-08-29T03:33:00.276Z,99.90
2022-08-29T03:35:27.114Z,99.90
2022-08-29T03:37:56.105Z,99.90
2022-08-29T03:40:24.083Z,99.90
2022-08-29T03:42:53.097Z,99.90
2022-08-29T03:45:20.346Z,99.90
2022-08-29T03:47:47.354Z,99.90
2022-08-29T03:50:16.081Z,99.90
2022-08-29T03:52:43.689Z,99.90
2022-08-29T03:55:11.401Z,99.90
2022-08-29T03:57:38.592Z,99.90
2022-08-29T04:00:13.736Z,99.90
2022-08-29T04:02:41.061Z,99.90
2022-08-29T04:05:08.902Z,99.90
2022-08-29T04:07:45.355Z,99.90
2022-08-29T04:10:14.885Z,99.90
2022-08-29T04:12:41.768Z,99.90
2022-08-29T04:15:10.965Z,99.90
2022-08-29T04:17:38.198Z,99.90
2022-08-29T04:20:25.077Z,99.90
2022-08-29T04:22:54.184Z,99.90
2022-08-29T04:25:22.653Z,99.90
2022-08-29T04:27:49.797Z,99.90
2022-08-29T04:30:22.935Z,99.90
2022-08-29T04:32:50.181Z,99.90
2022-08-29T04:35:17.691Z,99.90
2022-08-29T04:37:44.703Z,99.90
2022-08-29T04:40:15.629Z,99.90
2022-08-29T04:42:42.974Z,99.90
2022-08-29T04:45:12.394Z,99.90
2022-08-29T04:47:41.895Z,99.90
2022-08-29T04:50:12.678Z,99.90
2022-08-29T04:52:39.781Z,99.90
2022-08-29T04:55:08.229Z,99.90
2022-08-29T04:57:36.557Z,99.90
2022-08-29T05:00:06.852Z,99.90
2022-08-29T05:02:33.769Z,99.90
2022-08-29T05:05:02.463Z,99.90
2022-08-29T05:07:29.714Z,99.90
2022-08-29T05:10:01.059Z,99.90
2022-08-29T05:12:29.973Z,99.90
2022-08-29T05:14:57.443Z,99.90
2022-08-29T05:17:24.855Z,99.90
2022-08-29T05:19:51.856Z,99.90
2022-08-29T05:22:20.948Z,99.90
2022-08-29T05:24:49.655Z,99.90
2022-08-29T05:27:19.515Z,99.90
2022-08-29T05:29:48.860Z,99.90
2022-08-29T05:32:17.513Z,99.90
2022-08-29T05:34:45.871Z,99.90
2022-08-29T05:37:15.843Z,99.90
2022-08-29T05:39:44.076Z,99.90
2022-08-29T05:42:12.280Z,99.90
2022-08-29T05:44:40.028Z,99.90
2022-08-29T05:47:08.646Z,99.90
2022-08-29T05:49:36.692Z,99.90
2022-08-29T05:56:30.995Z,99.90
2022-08-29T05:58:58.237Z,99.90
2022-08-29T06:01:27.484Z,99.90
2022-08-29T06:03:56.397Z,99.90
2022-08-29T06:06:25.719Z,99.90
2022-08-29T06:08:53.677Z,99.90
2022-08-29T06:11:24.118Z,99.90
2022-08-29T06:13:52.526Z,99.90
2022-08-29T06:16:21.279Z,99.90
2022-08-29T06:18:48.368Z,99.90
2022-08-29T06:21:15.974Z,99.90
2022-08-29T06:23:44.135Z,99.90
2022-08-29T06:26:12.172Z,99.90
2022-08-29T06:28:42.037Z,99.90
2022-08-29T06:31:12.993Z,99.90
2022-08-29T06:33:40.663Z,99.90
2022-08-29T06:36:09.187Z,99.90
2022-08-29T06:38:36.502Z,99.90
2022-08-29T06:41:04.008Z,99.90
2022-08-29T06:43:31.075Z,99.90
2022-08-29T06:45:58.348Z,99.90
2022-08-29T06:48:29.522Z,99.90
2022-08-29T06:50:57.422Z,99.90
2022-08-29T06:53:32.530Z,99.90
2022-08-29T06:56:05.264Z,99.90
2022-08-29T06:58:32.524Z,99.90
2022-08-29T07:00:59.635Z,99.90
2022-08-29T07:03:28.244Z,99.90
2022-08-29T07:05:55.170Z,99.90
2022-08-29T07:08:23.722Z,99.90
2022-08-29T07:10:50.712Z,99.90
2022-08-29T07:13:17.804Z,99.90
2022-08-29T07:15:44.733Z,99.90
2022-08-29T07:18:11.937Z,99.90
2022-08-29T07:20:40.532Z,99.90
2022-08-29T07:23:08.116Z,99.90
2022-08-29T07:25:36.747Z,99.90
2022-08-29T07:28:10.472Z,99.90
2022-08-29T07:30:37.972Z,99.90
2022-08-29T07:33:05.140Z,99.90
2022-08-29T07:35:32.103Z,99.90
2022-08-29T07:38:03.857Z,99.90
2022-08-29T07:40:31.023Z,99.90
2022-08-29T07:42:58.128Z,99.90
2022-08-29T07:45:25.038Z,99.90
2022-08-29T07:47:51.998Z,99.90
2022-08-29T07:50:19.178Z,99.90
2022-08-29T07:52:47.725Z,99.90
2022-08-29T07:55:16.138Z,99.90
2022-08-29T07:57:43.091Z,99.90
2022-08-29T08:00:12.259Z,99.90
2022-08-29T08:02:39.357Z,99.90
2022-08-29T08:05:07.349Z,99.90
2022-08-29T08:07:35.216Z,99.90
2022-08-29T08:10:03.669Z,99.90
2022-08-29T08:12:32.391Z,99.90
2022-08-29T08:14:59.340Z,99.90
2022-08-29T08:17:26.895Z,99.90
2022-08-29T08:19:53.781Z,99.90
2022-08-29T08:22:20.682Z,99.90
2022-08-29T08:24:48.561Z,99.90
2022-08-29T08:27:15.605Z,99.90
2022-08-29T08:29:44.244Z,99.90
2022-08-29T08:32:11.127Z,99.90
2022-08-29T08:34:38.032Z,99.90
2022-08-29T08:37:07.463Z,99.90
2022-08-29T08:39:35.106Z,99.90
2022-08-29T08:42:10.436Z,99.90
2022-08-29T08:44:53.294Z,99.90
2022-08-29T08:47:26.667Z,99.90
2022-08-29T08:49:59.272Z,99.90
2022-08-29T08:52:34.539Z,99.90
2022-08-29T08:55:05.179Z,99.90
2022-08-29T08:57:39.657Z,99.90
2022-08-29T09:00:13.385Z,99.90
2022-08-29T09:02:52.231Z,99.90
2022-08-29T09:05:34.022Z,99.90
2022-08-29T09:08:11.340Z,99.90
2022-08-29T09:10:47.149Z,96.70
2022-08-29T09:13:25.545Z,93.30
2022-08-29T09:15:56.390Z,90.50
2022-08-29T09:18:30.272Z,82.10
2022-08-29T09:20:57.438Z,77.00
2022-08-29T09:23:31.138Z,74.70
2022-08-29T09:25:58.230Z,72.30
2022-08-29T09:28:25.264Z,69.60
2022-08-29T09:31:19.998Z,66.90
2022-08-29T09:33:50.480Z,64.80
2022-08-29T09:36:37.622Z,61.60
2022-08-29T09:39:17.026Z,60.10
2022-08-29T09:41:44.828Z,59.60
2022-08-29T09:44:15.359Z,58.30
2022-08-29T09:46:43.659Z,58.50
2022-08-29T09:49:14.486Z,58.70
2022-08-29T09:51:42.756Z,58.30
2022-08-29T09:54:17.517Z,59.40
2022-08-29T09:56:51.799Z,60.00
2022-08-29T10:00:23.985Z,59.70
2022-08-29T10:07:09.160Z,60.20
2022-08-29T10:09:36.281Z,60.80
2022-08-29T10:12:10.157Z,60.60
2022-08-29T10:14:40.765Z,60.90
2022-08-29T10:17:40.356Z,61.90
2022-08-29T10:20:11.629Z,61.60
2022-08-29T10:22:44.282Z,62.30
2022-08-29T10:25:18.079Z,62.10
2022-08-29T10:27:51.794Z,62.50
2022-08-29T10:30:22.505Z,62.70
2022-08-29T10:33:11.566Z,62.90
2022-08-29T10:36:29.576Z,61.60
2022-08-29T10:39:07.450Z,61.70
2022-08-29T10:41:40.298Z,63.70
2022-08-29T10:44:19.358Z,63.10
2022-08-29T10:47:12.946Z,63.40
2022-08-29T10:49:51.800Z,63.90
2022-08-29T10:52:28.391Z,64.20
2022-08-29T10:55:03.880Z,63.80
2022-08-29T10:58:03.120Z,64.50
2022-08-29T11:00:40.108Z,64.80
2022-08-29T11:03:17.235Z,64.20
2022-08-29T11:06:13.046Z,65.20
2022-08-29T11:08:45.544Z,64.90
2022-08-29T11:11:41.274Z,62.70
2022-08-29T11:15:03.975Z,64.80
2022-08-29T11:29:37.046Z,63.80
2022-08-29T11:32:09.677Z,63.70
2022-08-29T11:35:03.294Z,63.50
2022-08-29T11:38:20.768Z,63.40
2022-08-29T11:41:31.572Z,63.30
2022-08-29T11:44:14.800Z,63.50
2022-08-29T11:46:53.309Z,63.60
2022-08-29T11:49:36.037Z,63.90
2022-08-29T11:52:20.289Z,63.80
2022-08-29T11:54:54.714Z,63.20
2022-08-29T11:58:00.544Z,63.80
2022-08-29T12:00:42.502Z,64.30
2022-08-29T12:03:52.198Z,65.20
2022-08-29T12:06:52.567Z,64.30
2022-08-29T12:09:38.998Z,61.70
2022-08-29T12:12:32.303Z,62.20
2022-08-29T12:14:59.185Z,63.10
2022-08-29T12:18:03.607Z,63.50
2022-08-29T12:20:41.581Z,65.00
2022-08-29T12:23:21.204Z,66.10
2022-08-29T12:26:09.555Z,66.70
2022-08-29T12:28:46.623Z,66.70
2022-08-29T12:32:02.153Z,67.00
2022-08-29T12:34:50.656Z,67.30
2022-08-29T12:37:48.165Z,67.10
2022-08-29T12:40:45.132Z,67.70
2022-08-29T12:43:23.581Z,67.00
2022-08-29T12:45:51.732Z,66.70
2022-08-29T12:48:24.661Z,66.80
2022-08-29T12:50:53.788Z,66.20
2022-08-29T12:53:23.506Z,67.10
2022-08-29T12:55:55.549Z,67.10
2022-08-29T12:58:41.178Z,67.00
2022-08-29T13:01:22.191Z,66.50
2022-08-29T13:03:57.811Z,65.30
2022-08-29T13:06:24.840Z,66.00
2022-08-29T13:08:51.862Z,65.70
2022-08-29T13:11:23.320Z,64.90
2022-08-29T13:13:50.380Z,65.50
2022-08-29T13:16:26.103Z,65.30
2022-08-29T13:19:10.040Z,64.80
2022-08-29T13:21:37.991Z,65.30
2022-08-29T13:24:10.662Z,67.30
2022-08-29T13:26:43.047Z,67.50
2022-08-29T13:29:28.213Z,67.70
2022-08-29T13:32:19.301Z,67.90
2022-08-29T13:35:07.254Z,68.30
2022-08-29T13:37:36.929Z,69.00
2022-08-29T13:40:36.649Z,69.70
2022-08-29T13:43:06.041Z,69.60
2022-08-29T13:45:33.968Z,69.80
2022-08-29T13:48:14.899Z,70.20
2022-08-29T13:50:42.024Z,70.10
2022-08-29T13:53:09.134Z,69.90
2022-08-29T13:55:36.367Z,69.90
2022-08-29T13:58:05.088Z,70.20
2022-08-29T14:00:35.513Z,70.10
2022-08-29T14:03:03.975Z,70.70
2022-08-29T14:05:31.635Z,71.00
2022-08-29T14:07:58.786Z,70.70
2022-08-29T14:10:25.758Z,71.10
2022-08-29T14:12:52.674Z,70.50
2022-08-29T14:15:21.095Z,70.40
2022-08-29T14:17:48.367Z,70.20
2022-08-29T14:20:17.575Z,70.00
2022-08-29T14:22:45.034Z,70.10
2022-08-29T14:25:13.483Z,69.80
2022-08-29T14:27:41.439Z,69.60
2022-08-29T14:30:10.707Z,69.00
2022-08-29T14:32:39.065Z,68.50
2022-08-29T14:35:07.484Z,67.90
2022-08-29T14:37:34.629Z,67.70
2022-08-29T14:40:02.114Z,67.50
2022-08-29T14:42:30.815Z,67.40
2022-08-29T14:44:57.701Z,67.80
2022-08-29T14:47:24.549Z,68.30
2022-08-29T14:49:52.867Z,68.50
2022-08-29T14:52:19.995Z,68.70
2022-08-29T14:54:46.913Z,69.00
2022-08-29T14:57:13.869Z,68.50
2022-08-29T14:59:41.582Z,68.70
2022-08-29T15:02:10.032Z,69.30
2022-08-29T15:04:37.939Z,69.40
2022-08-29T15:07:12.160Z,68.70
2022-08-29T15:09:41.655Z,68.80
2022-08-29T15:12:08.752Z,68.70
2022-08-29T15:14:35.871Z,69.30
2022-08-29T15:17:03.121Z,69.30
2022-08-29T15:20:18.258Z,68.80
2022-08-29T15:22:20.638Z,68.90
2022-08-29T15:24:49.989Z,69.10
2022-08-29T15:27:18.257Z,69.20
2022-08-29T15:29:45.145Z,70.00
2022-08-29T15:32:13.288Z,70.00
2022-08-29T15:34:41.648Z,69.60
2022-08-29T15:37:10.603Z,69.40
2022-08-29T15:39:39.604Z,69.20
2022-08-29T15:42:10.929Z,69.20
2022-08-29T15:44:38.535Z,69.10
2022-08-29T15:47:06.181Z,68.60
2022-08-29T15:49:38.201Z,68.50
2022-08-29T15:52:05.176Z,68.70
2022-08-29T15:54:32.148Z,69.10
2022-08-29T15:57:00.396Z,69.60
2022-08-29T15:59:54.187Z,69.90
2022-08-29T16:02:15.021Z,70.30
2022-08-29T16:04:47.579Z,70.40
2022-08-29T16:07:16.754Z,70.10
2022-08-29T16:09:44.536Z,70.70
2022-08-29T16:12:12.892Z,70.50
2022-08-29T16:14:59.135Z,70.70
2022-08-29T16:17:29.649Z,71.20
2022-08-29T16:19:56.686Z,71.30
2022-08-29T16:22:23.760Z,70.80
2022-08-29T16:24:50.876Z,71.60
2022-08-29T16:27:23.259Z,71.40
2022-08-29T16:29:50.664Z,71.30
2022-08-29T16:32:17.764Z,71.50
2022-08-29T16:34:45.012Z,71.40
2022-08-29T16:37:12.101Z,71.70
2022-08-29T16:39:39.088Z,71.20
2022-08-29T16:42:06.474Z,71.60
2022-08-29T16:44:34.824Z,71.60
2022-08-29T16:47:02.183Z,71.80
2022-08-29T16:49:29.143Z,71.80
2022-08-29T16:51:57.384Z,71.70
2022-08-29T16:54:24.742Z,71.60
2022-08-29T16:56:52.403Z,71.50
2022-08-29T16:59:19.291Z,71.40
2022-08-29T17:01:49.645Z,71.30
2022-08-29T17:04:18.820Z,71.10
2022-08-29T17:06:49.024Z,71.20
2022-08-29T17:09:18.457Z,71.60
2022-08-29T17:11:45.340Z,71.80
2022-08-29T17:14:12.663Z,72.20
2022-08-29T17:16:41.720Z,72.40
2022-08-29T17:19:10.028Z,72.70
2022-08-29T17:21:40.053Z,72.90
2022-08-29T17:24:07.602Z,73.00
2022-08-29T17:26:36.389Z,73.20
2022-08-29T17:29:08.587Z,73.40
2022-08-29T17:31:38.662Z,73.80
2022-08-29T17:34:07.812Z,74.00
2022-08-29T17:36:37.418Z,74.20
2022-08-29T17:39:05.297Z,74.30
2022-08-29T17:41:34.882Z,74.20
2022-08-29T17:44:02.251Z,74.40
2022-08-29T17:46:29.776Z,74.60
2022-08-29T17:48:56.905Z,74.80
2022-08-29T17:51:24.200Z,75.00
2022-08-29T17:53:52.669Z,75.10
2022-08-29T17:56:25.077Z,75.40
2022-08-29T17:58:52.020Z,75.60
2022-08-29T18:01:19.037Z,75.70
2022-08-29T18:03:46.804Z,75.90
2022-08-29T18:06:15.020Z,76.20
2022-08-29T18:08:42.849Z,76.30
2022-08-29T18:11:17.128Z,76.70
2022-08-29T18:13:44.188Z,76.90
2022-08-29T18:16:11.774Z,77.90
2022-08-29T18:18:39.288Z,77.40
2022-08-29T18:21:06.681Z,77.50
2022-08-29T18:23:33.764Z,77.60
2022-08-29T18:26:01.243Z,77.80
2022-08-29T18:28:30.538Z,77.70
2022-08-29T18:30:58.635Z,77.70
2022-08-29T18:33:38.896Z,78.20
2022-08-29T18:36:07.054Z,78.20
2022-08-29T18:38:34.501Z,78.20
2022-08-29T18:41:01.707Z,78.10
2022-08-29T18:43:30.427Z,78.30
2022-08-29T18:45:58.791Z,78.40
2022-08-29T18:48:29.520Z,78.40
2022-08-29T18:50:57.338Z,78.80
2022-08-29T18:53:26.347Z,79.10
2022-08-29T18:55:54.477Z,79.70
2022-08-29T18:58:22.788Z,80.20
2022-08-29T19:00:51.540Z,80.50
2022-08-29T19:03:18.953Z,81.30
2022-08-29T19:05:49.552Z,80.80
2022-08-29T19:08:17.606Z,81.10
2022-08-29T19:10:45.891Z,81.60
2022-08-29T19:13:13.512Z,82.10
2022-08-29T19:15:41.571Z,82.70
2022-08-29T19:18:10.947Z,83.90
2022-08-29T19:20:56.569Z,83.30
2022-08-29T19:23:23.908Z,83.50
2022-08-29T19:25:51.341Z,83.60
2022-08-29T19:28:19.775Z,84.50
2022-08-29T19:30:48.037Z,84.20
2022-08-29T19:33:18.334Z,84.20
2022-08-29T19:35:48.129Z,84.60
2022-08-29T19:38:16.141Z,85.00
2022-08-29T19:40:43.182Z,85.50
2022-08-29T19:43:13.606Z,85.90
2022-08-29T19:45:42.303Z,86.10
2022-08-29T19:48:14.886Z,86.50
2022-08-29T19:50:47.779Z,86.60
2022-08-29T19:53:24.536Z,87.10
2022-08-29T19:55:54.997Z,87.70
2022-08-29T19:58:23.643Z,88.00
2022-08-29T20:00:59.916Z,88.30
2022-08-29T20:03:27.594Z,88.30
2022-08-29T20:05:56.420Z,88.70
2022-08-29T20:08:23.423Z,88.90
2022-08-29T20:10:51.246Z,89.60
2022-08-29T20:13:19.427Z,90.00
2022-08-29T20:15:46.519Z,90.10
2022-08-29T20:18:13.433Z,90.30
2022-08-29T20:20:40.447Z,90.50
2022-08-29T20:23:09.782Z,90.70
2022-08-29T20:25:36.833Z,90.90
2022-08-29T20:28:04.477Z,91.00
2022-08-29T20:30:33.584Z,91.10
2022-08-29T20:33:01.047Z,91.00
2022-08-29T20:35:47.232Z,91.00
2022-08-29T20:38:15.664Z,91.00
2022-08-29T20:40:46.765Z,91.00
2022-08-29T20:43:14.104Z,91.10
2022-08-29T20:45:42.109Z,91.30
2022-08-29T20:48:09.241Z,91.40
2022-08-29T20:50:36.953Z,91.50
2022-08-29T20:53:03.925Z,91.60
2022-08-29T20:55:32.373Z,91.80
2022-08-29T20:57:59.271Z,92.00
2022-08-29T21:00:26.280Z,92.20
2022-08-29T21:03:11.901Z,92.20
2022-08-29T21:05:42.561Z,92.20
2022-08-29T21:08:11.398Z,92.30
2022-08-29T21:10:39.893Z,92.30
2022-08-29T21:13:07.229Z,92.20
2022-08-29T21:15:34.717Z,92.20
2022-08-29T21:18:02.171Z,92.10
2022-08-29T21:20:29.226Z,92.20
2022-08-29T21:22:59.560Z,92.10
2022-08-29T21:25:26.772Z,92.40
2022-08-29T21:27:55.269Z,92.40
2022-08-29T21:30:22.692Z,92.20
2022-08-29T21:32:50.271Z,92.40
2022-08-29T21:35:17.529Z,92.40
2022-08-29T21:37:44.617Z,92.50
2022-08-29T21:40:13.478Z,92.70
2022-08-29T21:42:42.201Z,92.80
2022-08-29T21:45:11.300Z,92.60
2022-08-29T21:47:38.389Z,92.60
2022-08-29T21:50:06.313Z,92.60
2022-08-29T21:52:34.764Z,92.80
2022-08-29T21:55:01.905Z,92.80
2022-08-29T21:57:47.244Z,92.80
2022-08-29T22:00:16.566Z,92.70
2022-08-29T22:02:44.848Z,92.70
2022-08-29T22:05:12.090Z,92.80
2022-08-29T22:07:40.733Z,93.20
2022-08-29T22:10:12.137Z,93.50
2022-08-29T22:12:39.062Z,93.80
2022-08-29T22:15:26.216Z,93.90
2022-08-29T22:17:54.452Z,93.70
2022-08-29T22:20:21.465Z,94.00
2022-08-29T22:22:48.392Z,94.00
2022-08-29T22:25:15.643Z,94.20
2022-08-29T22:27:42.528Z,94.80
2022-08-29T22:30:11.052Z,94.60
2022-08-29T22:32:38.659Z,94.60
2022-08-29T22:35:10.692Z,94.70
2022-08-29T22:37:37.800Z,94.80
2022-08-29T22:40:10.717Z,94.70
2022-08-29T22:42:37.749Z,94.70
2022-08-29T22:45:08.627Z,94.70
2022-08-29T22:47:35.684Z,95.00
2022-08-29T22:50:03.123Z,95.30
2022-08-29T22:52:31.473Z,95.40
2022-08-29T22:54:58.926Z,95.50
2022-08-29T22:57:26.066Z,95.70
2022-08-29T22:59:53.346Z,95.80
2022-08-29T23:02:21.086Z,95.80
2022-08-29T23:04:49.851Z,95.90
2022-08-29T23:07:16.894Z,96.10
2022-08-29T23:09:46.130Z,96.00
2022-08-29T23:12:14.359Z,96.20
2022-08-29T23:14:43.344Z,96.30
2022-08-29T23:17:10.300Z,96.40
2022-08-29T23:19:38.494Z,96.60
2022-08-29T23:22:08.848Z,96.60
2022-08-29T23:24:35.822Z,96.60
2022-08-29T23:27:04.218Z,96.70
2022-08-29T23:29:32.871Z,96.80
2022-08-29T23:32:00.740Z,96.90
2022-08-29T23:34:28.004Z,97.20
2022-08-29T23:36:54.874Z,97.30
2022-08-29T23:39:21.914Z,97.40
2022-08-29T23:41:48.791Z,97.30
2022-08-29T23:44:17.556Z,97.30
2022-08-29T23:46:44.549Z,97.20
2022-08-29T23:49:11.594Z,97.10
2022-08-29T23:51:38.557Z,97.10
2022-08-29T23:54:05.562Z,97.10
2022-08-29T23:56:32.624Z,97.10
2022-08-29T23:58:59.584Z,97.30
